sensor_id;sensor_type;location;lat;lon;timestamp;temperature;humidity
14049;DHT22;7099;53.922;10.728;2022-08-19T00:02:09;21.60;99.90
14049;DHT22;7099;53.922;10.728;2022-08-19T00:06:36;21.60;99.90
14049;DHT22;7099;53.922;10.728;2022-08-19T00:11:02;21.60;99.90
14049;DHT22;7099;53.922;10.728;2022-08-19T00:15:28;21.60;99.90
14049;DHT22;7099;53.922;10.728;2022-08-19T00:19:53;21.50;99.90
14049;DHT22;7099;53.922;10.728;2022-08-19T00:24:19;21.50;99.90
14049;DHT22;7099;53.922;10.728;2022-08-19T00:28:44;21.40;99.90
14049;DHT22;7099;53.922;10.728;2022-08-19T00:33:10;21.30;99.90
14049;DHT22;7099;53.922;10.728;2022-08-19T00:37:35;21.30;99.90
14049;DHT22;7099;53.922;10.728;2022-08-19T00:42:01;21.30;99.90
14049;DHT22;7099;53.922;10.728;2022-08-19T00:46:27;21.20;99.90
14049;DHT22;7099;53.922;10.728;2022-08-19T00:50:53;21.20;99.90
14049;DHT22;7099;53.922;10.728;2022-08-19T00:55:26;21.20;99.90
14049;DHT22;7099;53.922;10.728;2022-08-19T00:59:56;21.20;99.90
14049;DHT22;7099;53.922;10.728;2022-08-19T01:04:26;21.20;99.90
14049;DHT22;7099;53.922;10.728;2022-08-19T01:08:53;21.20;99.90
14049;DHT22;7099;53.922;10.728;2022-08-19T01:13:22;21.20;99.90
14049;DHT22;7099;53.922;10.728;2022-08-19T01:17:50;21.20;99.90
14049;DHT22;7099;53.922;10.728;2022-08-19T01:22:30;21.10;99.90
14049;DHT22;7099;53.922;10.728;2022-08-19T01:27:41;21.10;99.90
14049;DHT22;7099;53.922;10.728;2022-08-19T01:32:12;21.10;99.90
14049;DHT22;7099;53.922;10.728;2022-08-19T01:36:57;21.10;99.90
14049;DHT22;7099;53.922;10.728;2022-08-19T01:41:23;21.10;99.90
14049;DHT22;7099;53.922;10.728;2022-08-19T01:45:48;21.10;99.90
14049;DHT22;7099;53.922;10.728;2022-08-19T01:50:16;21.10;99.90
14049;DHT22;7099;53.922;10.728;2022-08-19T01:54:41;21.10;99.90
14049;DHT22;7099;53.922;10.728;2022-08-19T01:59:16;21.10;99.90
14049;DHT22;7099;53.922;10.728;2022-08-19T02:03:45;21.10;99.90
14049;DHT22;7099;53.922;10.728;2022-08-19T02:08:11;21.20;99.90
14049;DHT22;7099;53.922;10.728;2022-08-19T02:12:37;21.20;99.90
14049;DHT22;7099;53.922;10.728;2022-08-19T02:17:03;21.20;99.90
14049;DHT22;7099;53.922;10.728;2022-08-19T02:21:29;21.30;99.90
14049;DHT22;7099;53.922;10.728;2022-08-19T02:25:54;21.30;99.90
14049;DHT22;7099;53.922;10.728;2022-08-19T02:30:20;21.30;99.90
14049;DHT22;7099;53.922;10.728;2022-08-19T02:34:47;21.30;99.90
14049;DHT22;7099;53.922;10.728;2022-08-19T02:39:12;21.30;99.90
14049;DHT22;7099;53.922;10.728;2022-08-19T02:43:38;21.20;99.90
14049;DHT22;7099;53.922;10.728;2022-08-19T02:48:25;21.20;99.90
14049;DHT22;7099;53.922;10.728;2022-08-19T02:52:50;21.30;99.90
14049;DHT22;7099;53.922;10.728;2022-08-19T02:57:16;21.30;99.90
14049;DHT22;7099;53.922;10.728;2022-08-19T03:01:42;21.40;99.90
14049;DHT22;7099;53.922;10.728;2022-08-19T03:06:11;21.40;99.90
14049;DHT22;7099;53.922;10.728;2022-08-19T03:10:43;21.40;99.90
14049;DHT22;7099;53.922;10.728;2022-08-19T03:15:09;21.40;99.90
14049;DHT22;7099;53.922;10.728;2022-08-19T03:19:35;21.30;99.90
14049;DHT22;7099;53.922;10.728;2022-08-19T03:24:03;21.20;99.90
14049;DHT22;7099;53.922;10.728;2022-08-19T03:28:31;21.30;99.90
14049;DHT22;7099;53.922;10.728;2022-08-19T03:32:56;21.30;99.90
14049;DHT22;7099;53.922;10.728;2022-08-19T03:37:23;21.30;99.90
14049;DHT22;7099;53.922;10.728;2022-08-19T03:41:51;21.30;99.90
14049;DHT22;7099;53.922;10.728;2022-08-19T03:46:37;21.40;99.90
14049;DHT22;7099;53.922;10.728;2022-08-19T03:51:19;21.40;99.90
14049;DHT22;7099;53.922;10.728;2022-08-19T03:55:55;21.40;99.90
14049;DHT22;7099;53.922;10.728;2022-08-19T04:00:22;21.40;99.90
14049;DHT22;7099;53.922;10.728;2022-08-19T04:04:48;21.30;99.90
14049;DHT22;7099;53.922;10.728;2022-08-19T04:09:13;21.30;99.90
14049;DHT22;7099;53.922;10.728;2022-08-19T04:13:39;21.30;99.90
14049;DHT22;7099;53.922;10.728;2022-08-19T04:18:05;21.20;99.90
14049;DHT22;7099;53.922;10.728;2022-08-19T04:22:32;21.20;99.90
14049;DHT22;7099;53.922;10.728;2022-08-19T04:27:02;21.20;99.90
14049;DHT22;7099;53.922;10.728;2022-08-19T04:31:30;21.20;99.90
14049;DHT22;7099;53.922;10.728;2022-08-19T04:35:58;21.20;99.90
14049;DHT22;7099;53.922;10.728;2022-08-19T04:40:23;21.20;99.90
14049;DHT22;7099;53.922;10.728;2022-08-19T04:45:10;21.20;99.90
14049;DHT22;7099;53.922;10.728;2022-08-19T04:49:37;21.20;99.90
14049;DHT22;7099;53.922;10.728;2022-08-19T04:54:03;21.20;99.90
14049;DHT22;7099;53.922;10.728;2022-08-19T04:58:29;21.20;99.90
14049;DHT22;7099;53.922;10.728;2022-08-19T05:02:54;21.10;99.90
14049;DHT22;7099;53.922;10.728;2022-08-19T05:07:19;21.10;99.90
14049;DHT22;7099;53.922;10.728;2022-08-19T05:11:45;21.10;99.90
14049;DHT22;7099;53.922;10.728;2022-08-19T05:16:12;21.10;99.90
14049;DHT22;7099;53.922;10.728;2022-08-19T05:20:38;21.10;99.90
14049;DHT22;7099;53.922;10.728;2022-08-19T05:25:23;21.10;99.90
14049;DHT22;7099;53.922;10.728;2022-08-19T05:29:49;21.10;99.90
14049;DHT22;7099;53.922;10.728;2022-08-19T05:34:14;21.10;99.90
14049;DHT22;7099;53.922;10.728;2022-08-19T05:38:44;21.00;99.90
14049;DHT22;7099;53.922;10.728;2022-08-19T05:43:09;21.00;99.90
14049;DHT22;7099;53.922;10.728;2022-08-19T05:47:34;21.00;99.90
14049;DHT22;7099;53.922;10.728;2022-08-19T05:52:09;21.00;99.90
14049;DHT22;7099;53.922;10.728;2022-08-19T05:56:36;21.00;99.90
14049;DHT22;7099;53.922;10.728;2022-08-19T06:01:04;20.90;99.90
14049;DHT22;7099;53.922;10.728;2022-08-19T06:05:34;20.90;99.90
14049;DHT22;7099;53.922;10.728;2022-08-19T06:10:16;21.00;99.90
14049;DHT22;7099;53.922;10.728;2022-08-19T06:14:41;21.00;99.90
14049;DHT22;7099;53.922;10.728;2022-08-19T06:19:17;21.00;99.90
14049;DHT22;7099;53.922;10.728;2022-08-19T06:23:44;20.90;99.90
14049;DHT22;7099;53.922;10.728;2022-08-19T06:28:12;21.00;99.90
14049;DHT22;7099;53.922;10.728;2022-08-19T06:32:39;21.00;99.90
14049;DHT22;7099;53.922;10.728;2022-08-19T06:37:07;21.00;99.90
14049;DHT22;7099;53.922;10.728;2022-08-19T06:41:36;21.00;99.90
14049;DHT22;7099;53.922;10.728;2022-08-19T06:46:13;21.00;99.90
14049;DHT22;7099;53.922;10.728;2022-08-19T06:50:41;21.00;99.90
14049;DHT22;7099;53.922;10.728;2022-08-19T06:55:06;20.90;99.90
14049;DHT22;7099;53.922;10.728;2022-08-19T06:59:33;20.90;99.90
14049;DHT22;7099;53.922;10.728;2022-08-19T07:03:58;21.00;99.90
14049;DHT22;7099;53.922;10.728;2022-08-19T07:08:26;21.00;99.90
14049;DHT22;7099;53.922;10.728;2022-08-19T07:12:53;21.10;99.90
14049;DHT22;7099;53.922;10.728;2022-08-19T07:17:19;21.10;99.90
14049;DHT22;7099;53.922;10.728;2022-08-19T07:21:47;21.20;99.90
14049;DHT22;7099;53.922;10.728;2022-08-19T07:26:19;21.20;99.90
14049;DHT22;7099;53.922;10.728;2022-08-19T07:30:52;21.20;99.90
14049;DHT22;7099;53.922;10.728;2022-08-19T07:35:19;21.10;99.90
14049;DHT22;7099;53.922;10.728;2022-08-19T07:39:45;21.10;99.90
14049;DHT22;7099;53.922;10.728;2022-08-19T07:44:11;21.10;99.90
14049;DHT22;7099;53.922;10.728;2022-08-19T07:48:37;21.20;99.90
14049;DHT22;7099;53.922;10.728;2022-08-19T07:53:02;21.30;99.90
14049;DHT22;7099;53.922;10.728;2022-08-19T07:57:28;21.30;99.90
14049;DHT22;7099;53.922;10.728;2022-08-19T08:01:53;21.30;99.90
14049;DHT22;7099;53.922;10.728;2022-08-19T08:06:18;21.30;99.90
14049;DHT22;7099;53.922;10.728;2022-08-19T08:11:03;21.30;99.90
14049;DHT22;7099;53.922;10.728;2022-08-19T08:15:32;21.40;99.90
14049;DHT22;7099;53.922;10.728;2022-08-19T08:20:05;21.40;99.90
14049;DHT22;7099;53.922;10.728;2022-08-19T08:24:33;21.50;99.90
14049;DHT22;7099;53.922;10.728;2022-08-19T08:29:00;21.50;99.90
14049;DHT22;7099;53.922;10.728;2022-08-19T08:33:36;21.50;99.90
14049;DHT22;7099;53.922;10.728;2022-08-19T08:38:03;21.50;99.90
14049;DHT22;7099;53.922;10.728;2022-08-19T08:42:34;21.50;99.90
14049;DHT22;7099;53.922;10.728;2022-08-19T08:47:04;21.50;99.90
14049;DHT22;7099;53.922;10.728;2022-08-19T08:51:42;21.50;99.90
14049;DHT22;7099;53.922;10.728;2022-08-19T08:56:25;21.50;99.90
14049;DHT22;7099;53.922;10.728;2022-08-19T09:00:52;21.50;99.90
14049;DHT22;7099;53.922;10.728;2022-08-19T09:05:19;21.60;99.90
14049;DHT22;7099;53.922;10.728;2022-08-19T09:09:52;21.60;99.90
14049;DHT22;7099;53.922;10.728;2022-08-19T09:19:16;21.60;99.90
14049;DHT22;7099;53.922;10.728;2022-08-19T09:23:46;21.60;99.90
14049;DHT22;7099;53.922;10.728;2022-08-19T09:28:14;21.60;99.90
14049;DHT22;7099;53.922;10.728;2022-08-19T09:32:51;21.70;99.90
14049;DHT22;7099;53.922;10.728;2022-08-19T09:37:21;21.80;99.90
14049;DHT22;7099;53.922;10.728;2022-08-19T09:41:49;21.80;99.90
14049;DHT22;7099;53.922;10.728;2022-08-19T09:46:15;21.90;99.90
14049;DHT22;7099;53.922;10.728;2022-08-19T09:50:42;21.90;99.90
14049;DHT22;7099;53.922;10.728;2022-08-19T09:55:16;21.90;99.90
14049;DHT22;7099;53.922;10.728;2022-08-19T09:59:42;22.00;99.90
14049;DHT22;7099;53.922;10.728;2022-08-19T10:04:09;22.00;99.90
14049;DHT22;7099;53.922;10.728;2022-08-19T10:08:45;22.10;99.90
14049;DHT22;7099;53.922;10.728;2022-08-19T10:13:16;22.10;99.90
14049;DHT22;7099;53.922;10.728;2022-08-19T10:17:48;22.20;99.90
14049;DHT22;7099;53.922;10.728;2022-08-19T10:22:19;22.20;99.90
14049;DHT22;7099;53.922;10.728;2022-08-19T10:26:45;22.30;99.90
14049;DHT22;7099;53.922;10.728;2022-08-19T10:31:27;22.30;99.90
14049;DHT22;7099;53.922;10.728;2022-08-19T10:36:18;22.40;99.90
14049;DHT22;7099;53.922;10.728;2022-08-19T10:40:44;22.40;99.90
14049;DHT22;7099;53.922;10.728;2022-08-19T10:45:10;22.50;99.90
14049;DHT22;7099;53.922;10.728;2022-08-19T10:49:35;22.60;99.90
14049;DHT22;7099;53.922;10.728;2022-08-19T10:54:21;22.60;99.90
14049;DHT22;7099;53.922;10.728;2022-08-19T10:58:57;22.60;99.90
14049;DHT22;7099;53.922;10.728;2022-08-19T11:03:24;22.50;99.90
14049;DHT22;7099;53.922;10.728;2022-08-19T11:07:50;22.60;99.90
14049;DHT22;7099;53.922;10.728;2022-08-19T11:12:17;22.60;99.90
14049;DHT22;7099;53.922;10.728;2022-08-19T11:16:42;22.50;99.90
14049;DHT22;7099;53.922;10.728;2022-08-19T11:21:10;22.50;99.90
14049;DHT22;7099;53.922;10.728;2022-08-19T11:25:42;22.40;99.90
14049;DHT22;7099;53.922;10.728;2022-08-19T11:30:08;22.40;99.90
14049;DHT22;7099;53.922;10.728;2022-08-19T11:34:37;22.40;99.90
14049;DHT22;7099;53.922;10.728;2022-08-19T11:39:05;22.30;99.90
14049;DHT22;7099;53.922;10.728;2022-08-19T11:43:31;22.30;99.90
14049;DHT22;7099;53.922;10.728;2022-08-19T11:48:01;22.20;99.90
14049;DHT22;7099;53.922;10.728;2022-08-19T11:52:27;22.20;99.90
14049;DHT22;7099;53.922;10.728;2022-08-19T11:56:54;22.20;99.90
14049;DHT22;7099;53.922;10.728;2022-08-19T12:01:22;22.20;99.90
14049;DHT22;7099;53.922;10.728;2022-08-19T12:05:49;22.20;99.90
14049;DHT22;7099;53.922;10.728;2022-08-19T12:10:14;22.30;99.90
14049;DHT22;7099;53.922;10.728;2022-08-19T12:14:43;22.30;99.90
14049;DHT22;7099;53.922;10.728;2022-08-19T12:19:09;22.30;99.90
14049;DHT22;7099;53.922;10.728;2022-08-19T12:23:34;22.40;99.90
14049;DHT22;7099;53.922;10.728;2022-08-19T12:28:02;22.40;99.90
14049;DHT22;7099;53.922;10.728;2022-08-19T12:32:29;22.40;99.90
14049;DHT22;7099;53.922;10.728;2022-08-19T12:36:55;22.40;99.90
14049;DHT22;7099;53.922;10.728;2022-08-19T12:41:21;22.40;99.90
14049;DHT22;7099;53.922;10.728;2022-08-19T12:45:47;22.60;99.90
14049;DHT22;7099;53.922;10.728;2022-08-19T12:50:12;22.60;99.90
14049;DHT22;7099;53.922;10.728;2022-08-19T12:54:40;22.70;99.90
14049;DHT22;7099;53.922;10.728;2022-08-19T12:59:06;22.80;99.90
14049;DHT22;7099;53.922;10.728;2022-08-19T13:03:33;22.80;99.90
14049;DHT22;7099;53.922;10.728;2022-08-19T13:08:04;22.90;99.90
14049;DHT22;7099;53.922;10.728;2022-08-19T13:12:29;22.90;99.90
14049;DHT22;7099;53.922;10.728;2022-08-19T13:16:55;22.90;99.90
14049;DHT22;7099;53.922;10.728;2022-08-19T13:21:23;23.00;99.90
14049;DHT22;7099;53.922;10.728;2022-08-19T13:26:00;23.00;99.90
14049;DHT22;7099;53.922;10.728;2022-08-19T13:30:27;23.00;99.90
14049;DHT22;7099;53.922;10.728;2022-08-19T13:35:11;23.00;99.90
14049;DHT22;7099;53.922;10.728;2022-08-19T13:39:40;23.00;99.90
14049;DHT22;7099;53.922;10.728;2022-08-19T13:44:06;23.00;99.90
14049;DHT22;7099;53.922;10.728;2022-08-19T13:48:31;23.10;99.90
14049;DHT22;7099;53.922;10.728;2022-08-19T13:52:57;23.10;99.90
14049;DHT22;7099;53.922;10.728;2022-08-19T13:57:23;23.10;99.90
14049;DHT22;7099;53.922;10.728;2022-08-19T14:01:48;23.10;99.90
14049;DHT22;7099;53.922;10.728;2022-08-19T14:06:14;23.20;99.90
14049;DHT22;7099;53.922;10.728;2022-08-19T14:10:42;23.20;99.90
14049;DHT22;7099;53.922;10.728;2022-08-19T14:15:10;23.20;99.90
14049;DHT22;7099;53.922;10.728;2022-08-19T14:19:39;23.30;99.90
14049;DHT22;7099;53.922;10.728;2022-08-19T14:24:11;23.40;99.90
14049;DHT22;7099;53.922;10.728;2022-08-19T14:28:37;23.40;99.90
14049;DHT22;7099;53.922;10.728;2022-08-19T14:33:06;23.50;99.90
14049;DHT22;7099;53.922;10.728;2022-08-19T14:37:34;23.60;99.90
14049;DHT22;7099;53.922;10.728;2022-08-19T14:42:10;23.70;99.90
14049;DHT22;7099;53.922;10.728;2022-08-19T14:46:35;23.70;99.90
14049;DHT22;7099;53.922;10.728;2022-08-19T14:51:01;23.70;99.90
14049;DHT22;7099;53.922;10.728;2022-08-19T14:55:26;23.70;99.90
14049;DHT22;7099;53.922;10.728;2022-08-19T14:59:51;23.80;99.90
14049;DHT22;7099;53.922;10.728;2022-08-19T15:04:17;23.90;99.90
14049;DHT22;7099;53.922;10.728;2022-08-19T15:08:42;23.90;99.90
14049;DHT22;7099;53.922;10.728;2022-08-19T15:13:09;23.90;99.90
14049;DHT22;7099;53.922;10.728;2022-08-19T15:17:34;23.90;99.90
14049;DHT22;7099;53.922;10.728;2022-08-19T15:22:18;24.00;99.90
14049;DHT22;7099;53.922;10.728;2022-08-19T15:26:43;23.90;99.90
14049;DHT22;7099;53.922;10.728;2022-08-19T15:31:10;23.90;99.90
14049;DHT22;7099;53.922;10.728;2022-08-19T15:35:51;23.90;99.90
14049;DHT22;7099;53.922;10.728;2022-08-19T15:40:19;23.90;99.90
14049;DHT22;7099;53.922;10.728;2022-08-19T15:44:46;23.90;99.90
14049;DHT22;7099;53.922;10.728;2022-08-19T15:49:13;23.90;99.90
14049;DHT22;7099;53.922;10.728;2022-08-19T15:53:41;23.90;99.90
14049;DHT22;7099;53.922;10.728;2022-08-19T15:58:09;23.80;99.90
14049;DHT22;7099;53.922;10.728;2022-08-19T16:02:55;23.80;99.90
14049;DHT22;7099;53.922;10.728;2022-08-19T16:07:39;23.80;99.90
14049;DHT22;7099;53.922;10.728;2022-08-19T16:12:04;23.80;99.90
14049;DHT22;7099;53.922;10.728;2022-08-19T16:16:32;23.80;99.90
14049;DHT22;7099;53.922;10.728;2022-08-19T16:20:58;23.80;99.90
14049;DHT22;7099;53.922;10.728;2022-08-19T16:25:25;23.70;99.90
14049;DHT22;7099;53.922;10.728;2022-08-19T16:29:54;23.70;99.90
14049;DHT22;7099;53.922;10.728;2022-08-19T16:34:20;23.70;99.90
14049;DHT22;7099;53.922;10.728;2022-08-19T16:38:45;23.60;99.90
14049;DHT22;7099;53.922;10.728;2022-08-19T16:43:10;23.60;99.90
14049;DHT22;7099;53.922;10.728;2022-08-19T16:47:36;23.60;99.90
14049;DHT22;7099;53.922;10.728;2022-08-19T16:52:01;23.60;99.90
14049;DHT22;7099;53.922;10.728;2022-08-19T16:56:29;23.60;99.90
14049;DHT22;7099;53.922;10.728;2022-08-19T17:00:57;23.60;99.90
14049;DHT22;7099;53.922;10.728;2022-08-19T17:05:28;23.60;99.90
14049;DHT22;7099;53.922;10.728;2022-08-19T17:09:53;23.60;99.90
14049;DHT22;7099;53.922;10.728;2022-08-19T17:14:19;23.60;99.90
14049;DHT22;7099;53.922;10.728;2022-08-19T17:18:45;23.70;99.90
14049;DHT22;7099;53.922;10.728;2022-08-19T17:23:11;23.80;99.90
14049;DHT22;7099;53.922;10.728;2022-08-19T17:27:38;23.80;99.90
14049;DHT22;7099;53.922;10.728;2022-08-19T17:32:03;23.80;99.90
14049;DHT22;7099;53.922;10.728;2022-08-19T17:36:31;23.80;99.90
14049;DHT22;7099;53.922;10.728;2022-08-19T17:40:57;23.80;99.90
14049;DHT22;7099;53.922;10.728;2022-08-19T17:45:29;23.70;99.90
14049;DHT22;7099;53.922;10.728;2022-08-19T17:49:54;23.70;99.90
14049;DHT22;7099;53.922;10.728;2022-08-19T17:54:20;23.80;99.90
14049;DHT22;7099;53.922;10.728;2022-08-19T17:58:46;23.80;99.90
14049;DHT22;7099;53.922;10.728;2022-08-19T18:03:24;23.80;99.90
14049;DHT22;7099;53.922;10.728;2022-08-19T18:07:52;23.70;99.90
14049;DHT22;7099;53.922;10.728;2022-08-19T18:12:23;23.70;99.90
14049;DHT22;7099;53.922;10.728;2022-08-19T18:16:50;23.70;99.90
14049;DHT22;7099;53.922;10.728;2022-08-19T18:21:18;23.60;99.90
14049;DHT22;7099;53.922;10.728;2022-08-19T18:25:44;23.50;99.90
14049;DHT22;7099;53.922;10.728;2022-08-19T18:30:10;23.40;99.90
14049;DHT22;7099;53.922;10.728;2022-08-19T18:34:36;23.40;99.90
14049;DHT22;7099;53.922;10.728;2022-08-19T18:39:03;23.30;99.90
14049;DHT22;7099;53.922;10.728;2022-08-19T18:43:48;23.20;99.90
14049;DHT22;7099;53.922;10.728;2022-08-19T18:48:34;23.10;99.90
14049;DHT22;7099;53.922;10.728;2022-08-19T18:53:18;23.00;99.90
14049;DHT22;7099;53.922;10.728;2022-08-19T18:57:44;22.90;99.90
14049;DHT22;7099;53.922;10.728;2022-08-19T19:02:10;22.80;99.90
14049;DHT22;7099;53.922;10.728;2022-08-19T19:06:39;22.70;99.90
14049;DHT22;7099;53.922;10.728;2022-08-19T19:11:07;22.60;99.90
14049;DHT22;7099;53.922;10.728;2022-08-19T19:15:33;22.60;99.90
14049;DHT22;7099;53.922;10.728;2022-08-19T19:19:58;22.50;99.90
14049;DHT22;7099;53.922;10.728;2022-08-19T19:24:27;22.40;99.90
14049;DHT22;7099;53.922;10.728;2022-08-19T19:28:54;22.30;99.90
14049;DHT22;7099;53.922;10.728;2022-08-19T19:33:19;22.20;99.90
14049;DHT22;7099;53.922;10.728;2022-08-19T19:37:45;22.10;99.90
14049;DHT22;7099;53.922;10.728;2022-08-19T19:42:19;22.00;99.90
14049;DHT22;7099;53.922;10.728;2022-08-19T19:46:46;21.90;99.90
14049;DHT22;7099;53.922;10.728;2022-08-19T19:51:13;21.80;99.90
14049;DHT22;7099;53.922;10.728;2022-08-19T19:55:38;21.70;99.90
14049;DHT22;7099;53.922;10.728;2022-08-19T20:00:06;21.70;99.90
14049;DHT22;7099;53.922;10.728;2022-08-19T20:04:33;21.60;99.90
14049;DHT22;7099;53.922;10.728;2022-08-19T20:08:59;21.50;99.90
14049;DHT22;7099;53.922;10.728;2022-08-19T20:13:34;21.50;99.90
14049;DHT22;7099;53.922;10.728;2022-08-19T20:18:00;21.40;99.90
14049;DHT22;7099;53.922;10.728;2022-08-19T20:22:28;21.30;99.90
14049;DHT22;7099;53.922;10.728;2022-08-19T20:26:59;21.20;99.90
14049;DHT22;7099;53.922;10.728;2022-08-19T20:31:25;21.20;99.90
14049;DHT22;7099;53.922;10.728;2022-08-19T20:35:53;21.10;99.90
14049;DHT22;7099;53.922;10.728;2022-08-19T20:40:19;21.00;99.90
14049;DHT22;7099;53.922;10.728;2022-08-19T20:44:45;20.90;99.90
14049;DHT22;7099;53.922;10.728;2022-08-19T20:49:11;20.90;99.90
14049;DHT22;7099;53.922;10.728;2022-08-19T20:53:38;20.80;99.90
14049;DHT22;7099;53.922;10.728;2022-08-19T20:58:04;20.80;99.90
14049;DHT22;7099;53.922;10.728;2022-08-19T21:02:29;20.70;99.90
14049;DHT22;7099;53.922;10.728;2022-08-19T21:06:54;20.60;99.90
14049;DHT22;7099;53.922;10.728;2022-08-19T21:11:20;20.60;99.90
14049;DHT22;7099;53.922;10.728;2022-08-19T21:15:47;20.60;99.90
14049;DHT22;7099;53.922;10.728;2022-08-19T21:20:12;20.50;99.90
14049;DHT22;7099;53.922;10.728;2022-08-19T21:24:38;20.50;99.90
14049;DHT22;7099;53.922;10.728;2022-08-19T21:29:03;20.40;99.90
14049;DHT22;7099;53.922;10.728;2022-08-19T21:33:29;20.30;99.90
14049;DHT22;7099;53.922;10.728;2022-08-19T21:37:56;20.20;99.90
14049;DHT22;7099;53.922;10.728;2022-08-19T21:42:22;20.20;99.90
14049;DHT22;7099;53.922;10.728;2022-08-19T21:46:48;20.10;99.90
14049;DHT22;7099;53.922;10.728;2022-08-19T21:51:14;20.10;99.90
14049;DHT22;7099;53.922;10.728;2022-08-19T21:55:40;20.00;99.90
14049;DHT22;7099;53.922;10.728;2022-08-19T22:00:11;20.00;99.90
14049;DHT22;7099;53.922;10.728;2022-08-19T22:04:45;19.90;99.90
14049;DHT22;7099;53.922;10.728;2022-08-19T22:09:10;19.90;99.90
14049;DHT22;7099;53.922;10.728;2022-08-19T22:13:35;19.80;99.90
14049;DHT22;7099;53.922;10.728;2022-08-19T22:18:04;19.80;99.90
14049;DHT22;7099;53.922;10.728;2022-08-19T22:22:31;19.70;99.90
14049;DHT22;7099;53.922;10.728;2022-08-19T22:26:57;19.70;99.90
14049;DHT22;7099;53.922;10.728;2022-08-19T22:31:24;19.70;99.90
14049;DHT22;7099;53.922;10.728;2022-08-19T22:35:51;19.60;99.90
14049;DHT22;7099;53.922;10.728;2022-08-19T22:40:18;19.60;99.90
14049;DHT22;7099;53.922;10.728;2022-08-19T22:44:44;19.60;99.90
14049;DHT22;7099;53.922;10.728;2022-08-19T22:49:09;19.50;99.90
14049;DHT22;7099;53.922;10.728;2022-08-19T22:53:38;19.50;99.90
14049;DHT22;7099;53.922;10.728;2022-08-19T22:58:05;19.50;99.90
14049;DHT22;7099;53.922;10.728;2022-08-19T23:02:34;19.40;99.90
14049;DHT22;7099;53.922;10.728;2022-08-19T23:07:17;19.40;99.90
14049;DHT22;7099;53.922;10.728;2022-08-19T23:11:47;19.40;99.90
14049;DHT22;7099;53.922;10.728;2022-08-19T23:16:13;19.30;99.90
14049;DHT22;7099;53.922;10.728;2022-08-19T23:20:40;19.30;99.90
14049;DHT22;7099;53.922;10.728;2022-08-19T23:25:11;19.20;99.90
14049;DHT22;7099;53.922;10.728;2022-08-19T23:29:38;19.20;99.90
14049;DHT22;7099;53.922;10.728;2022-08-19T23:34:21;19.20;99.90
14049;DHT22;7099;53.922;10.728;2022-08-19T23:38:48;19.10;99.90
14049;DHT22;7099;53.922;10.728;2022-08-19T23:43:16;19.10;99.90
14049;DHT22;7099;53.922;10.728;2022-08-19T23:47:49;19.00;99.90
14049;DHT22;7099;53.922;10.728;2022-08-19T23:52:17;19.00;99.90
14049;DHT22;7099;53.922;10.728;2022-08-19T23:56:43;19.00;99.90
